createdAt,value
2023-01-17T00:02:44.293Z,98577.63
2023-01-17T00:05:47.933Z,98580.34
2023-01-17T00:08:51.938Z,98578.69
2023-01-17T00:11:37.146Z,98566.19
2023-01-17T00:14:22.595Z,98574.06
2023-01-17T00:17:07.849Z,98547.47
2023-01-17T00:20:11.534Z,98546.63
2023-01-17T00:23:23.039Z,98565.19
2023-01-17T00:26:19.263Z,98554.53
2023-01-17T00:29:04.346Z,98551.94
2023-01-17T00:31:49.319Z,98565.53
2023-01-17T00:34:34.318Z,98551.94
2023-01-17T00:37:19.381Z,98552.03
2023-01-17T00:40:04.706Z,98533.06
2023-01-17T00:42:49.704Z,98543.25
2023-01-17T00:45:53.467Z,98548.16
2023-01-17T00:48:58.453Z,98546.41
2023-01-17T00:52:02.550Z,98543.25
2023-01-17T00:55:06.457Z,98514.75
2023-01-17T00:58:10.250Z,98533.81
2023-01-17T01:01:14.026Z,98539.28
2023-01-17T01:04:18.024Z,98535.22
2023-01-17T01:07:21.884Z,98541.66
2023-01-17T01:10:26.239Z,98539.75
2023-01-17T01:13:30.311Z,98516.34
2023-01-17T01:16:34.779Z,98522.13
2023-01-17T01:19:38.485Z,98540.50
2023-01-17T01:22:42.535Z,98543.91
2023-01-17T01:25:46.577Z,98534.72
2023-01-17T01:28:50.290Z,98534.03
2023-01-17T01:31:54.162Z,98539.09
2023-01-17T01:34:39.341Z,98531.56
2023-01-17T01:37:24.634Z,98531.41
2023-01-17T01:40:10.194Z,98526.34
2023-01-17T01:42:57.968Z,98519.78
2023-01-17T01:45:48.745Z,98530.81
2023-01-17T01:48:38.293Z,98507.63
2023-01-17T01:51:31.435Z,98532.31
2023-01-17T01:54:21.566Z,98519.78
2023-01-17T01:57:09.670Z,98547.88
2023-01-17T01:59:58.932Z,98533.63
2023-01-17T02:02:48.505Z,98537.13
2023-01-17T02:05:34.742Z,98527.06
2023-01-17T02:08:22.807Z,98528.00
2023-01-17T02:11:08.111Z,98530.81
2023-01-17T02:13:53.308Z,98511.81
2023-01-17T02:16:50.529Z,98534.28
2023-01-17T02:19:53.910Z,98532.78
2023-01-17T02:22:50.967Z,98528.63
2023-01-17T02:26:17.589Z,98528.63
2023-01-17T02:29:11.623Z,98537.91
2023-01-17T02:32:31.831Z,98539.00
2023-01-17T02:35:28.100Z,98545.88
2023-01-17T02:38:36.781Z,98534.75
2023-01-17T02:41:31.054Z,98542.47
2023-01-17T02:44:19.121Z,98528.97
2023-01-17T02:47:21.413Z,98521.09
2023-01-17T02:50:13.736Z,98524.50
2023-01-17T02:53:26.001Z,98537.84
2023-01-17T02:56:45.578Z,98488.47
2023-01-17T02:59:46.078Z,98525.41
2023-01-17T03:02:57.258Z,98523.47
2023-01-17T03:05:54.350Z,98525.28
2023-01-17T03:08:46.101Z,98511.09
2023-01-17T03:11:31.483Z,98513.34
2023-01-17T03:14:16.797Z,98510.63
2023-01-17T03:17:01.798Z,98503.84
2023-01-17T03:19:46.972Z,98516.59
2023-01-17T03:22:32.071Z,98498.59
2023-01-17T03:25:17.573Z,98518.84
2023-01-17T03:28:02.956Z,98500.34
2023-01-17T03:30:47.890Z,98482.84
2023-01-17T03:33:33.379Z,98487.31
2023-01-17T03:36:20.223Z,98500.56
2023-01-17T03:39:05.385Z,98497.09
2023-01-17T03:41:50.828Z,98486.84
2023-01-17T03:44:36.062Z,98497.09
2023-01-17T03:47:21.389Z,98488.03
2023-01-17T03:50:06.343Z,98494.63
2023-01-17T03:52:51.897Z,98481.38
2023-01-17T03:55:37.013Z,98496.44
2023-01-17T03:58:22.013Z,98484.16
2023-01-17T04:01:07.481Z,98487.47
2023-01-17T04:03:52.611Z,98463.50
2023-01-17T04:06:38.067Z,98481.66
2023-01-17T04:09:23.275Z,98486.88
2023-01-17T04:12:09.477Z,98480.56
2023-01-17T04:14:54.797Z,98473.41
2023-01-17T04:17:39.942Z,98478.31
2023-01-17T04:20:32.852Z,98493.03
2023-01-17T04:23:18.678Z,98490.88
2023-01-17T04:26:04.045Z,98494.34
2023-01-17T04:28:49.574Z,98450.13
2023-01-17T04:31:34.763Z,98461.72
2023-01-17T04:34:19.875Z,98486.44
2023-01-17T04:37:05.159Z,98483.28
2023-01-17T04:39:50.450Z,98463.69
2023-01-17T04:42:35.595Z,98473.72
2023-01-17T04:45:20.621Z,98486.44
2023-01-17T04:48:06.452Z,98443.28
2023-01-17T04:50:51.718Z,98476.28
2023-01-17T04:53:40.127Z,98474.91
2023-01-17T04:56:25.368Z,98485.22
2023-01-17T04:59:10.448Z,98489.75
2023-01-17T05:01:55.537Z,98484.00
2023-01-17T05:04:40.764Z,98486.88
2023-01-17T05:07:25.648Z,98490.09
2023-01-17T05:10:11.183Z,98496.09
2023-01-17T05:12:57.847Z,98481.59
2023-01-17T05:15:43.290Z,98488.41
2023-01-17T05:18:28.547Z,98490.06
2023-01-17T05:21:13.628Z,98493.69
2023-01-17T05:23:58.630Z,98475.25
2023-01-17T05:26:43.789Z,98454.94
2023-01-17T05:29:30.288Z,98467.22
2023-01-17T05:32:15.483Z,98467.81
2023-01-17T05:35:02.489Z,98497.13
2023-01-17T05:37:49.526Z,98487.34
2023-01-17T05:40:34.698Z,98472.25
2023-01-17T05:43:21.996Z,98492.47
2023-01-17T05:46:07.639Z,98461.38
2023-01-17T05:48:52.659Z,98455.75
2023-01-17T05:51:39.530Z,98473.56
2023-01-17T05:54:24.638Z,98482.50
2023-01-17T05:57:09.875Z,98492.06
2023-01-17T05:59:54.828Z,98497.44
2023-01-17T06:02:40.355Z,98493.69
2023-01-17T06:05:26.792Z,98499.63
2023-01-17T06:08:11.817Z,98493.66
2023-01-17T06:10:59.156Z,98470.72
2023-01-17T06:13:44.703Z,98482.78
2023-01-17T06:16:30.033Z,98495.06
2023-01-17T06:19:15.161Z,98488.47
2023-01-17T06:22:00.298Z,98484.63
2023-01-17T06:24:45.488Z,98487.13
2023-01-17T06:27:30.769Z,98482.91
2023-01-17T06:30:16.264Z,98479.50
2023-01-17T06:33:01.859Z,98481.44
2023-01-17T06:35:51.528Z,98483.03
2023-01-17T06:38:37.095Z,98468.94
2023-01-17T06:41:23.288Z,98475.59
2023-01-17T06:44:09.882Z,98477.09
2023-01-17T06:46:55.254Z,98485.44
2023-01-17T06:49:40.446Z,98490.72
2023-01-17T06:52:25.400Z,98489.47
2023-01-17T06:55:10.606Z,98493.91
2023-01-17T06:57:57.721Z,98462.75
2023-01-17T07:00:42.588Z,98469.00
2023-01-17T07:03:27.650Z,98483.94
2023-01-17T07:06:12.814Z,98482.56
2023-01-17T07:08:59.006Z,98496.56
2023-01-17T07:11:45.298Z,98480.34
2023-01-17T07:14:30.928Z,98481.47
2023-01-17T07:17:15.973Z,98485.56
2023-01-17T07:20:01.523Z,98486.19
2023-01-17T07:22:46.938Z,98479.53
2023-01-17T07:25:32.433Z,98481.47
2023-01-17T07:28:17.586Z,98480.50
2023-01-17T07:31:08.005Z,98493.38
2023-01-17T07:33:53.288Z,98485.09
2023-01-17T07:36:38.618Z,98486.13
2023-01-17T07:39:23.826Z,98496.34
2023-01-17T07:42:09.310Z,98478.09
2023-01-17T07:44:54.470Z,98494.50
2023-01-17T07:47:39.869Z,98482.78
2023-01-17T07:50:24.814Z,98486.31
2023-01-17T07:53:10.426Z,98484.63
2023-01-17T07:55:55.905Z,98494.06
2023-01-17T07:58:40.997Z,98482.16
2023-01-17T08:01:27.228Z,98514.06
2023-01-17T08:04:14.044Z,98502.91
2023-01-17T08:07:00.522Z,98501.41
2023-01-17T08:09:49.588Z,98502.44
2023-01-17T08:12:35.961Z,98493.50
2023-01-17T08:15:20.999Z,98508.16
2023-01-17T08:18:05.991Z,98513.00
2023-01-17T08:20:50.995Z,98510.44
2023-01-17T08:23:36.024Z,98507.06
2023-01-17T08:26:22.390Z,98486.94
2023-01-17T08:29:08.223Z,98510.06
2023-01-17T08:31:54.039Z,98509.13
2023-01-17T08:34:39.114Z,98506.09
2023-01-17T08:37:24.451Z,98511.00
2023-01-17T08:40:11.039Z,98515.16
2023-01-17T08:42:58.130Z,98510.09
2023-01-17T08:45:48.212Z,98483.69
2023-01-17T08:48:33.072Z,98525.31
2023-01-17T08:51:17.967Z,98517.56
2023-01-17T08:54:02.990Z,98514.09
2023-01-17T08:56:48.485Z,98525.19
2023-01-17T08:59:33.609Z,98521.56
2023-01-17T09:02:19.711Z,98528.22
2023-01-17T09:05:05.081Z,98530.50
2023-01-17T09:07:50.020Z,98492.81
2023-01-17T09:10:35.105Z,98533.59
2023-01-17T09:13:21.182Z,98539.06
2023-01-17T09:16:08.523Z,98520.00
2023-01-17T09:18:55.936Z,98545.72
2023-01-17T09:21:41.396Z,98556.19
2023-01-17T09:24:26.287Z,98556.81
2023-01-17T09:27:11.585Z,98566.06
2023-01-17T09:29:56.749Z,98562.03
2023-01-17T09:32:41.930Z,98568.88
2023-01-17T09:35:27.246Z,98552.44
2023-01-17T09:38:13.122Z,98573.91
2023-01-17T09:40:58.501Z,98571.06
2023-01-17T09:43:50.845Z,98574.78
2023-01-17T09:46:46.198Z,98574.25
2023-01-17T09:49:46.685Z,98583.22
2023-01-17T09:52:33.277Z,98586.31
2023-01-17T09:55:19.764Z,98582.91
2023-01-17T09:58:11.277Z,98563.59
2023-01-17T10:00:56.533Z,98589.50
2023-01-17T10:04:02.451Z,98577.47
2023-01-17T10:07:11.264Z,98599.59
2023-01-17T10:10:15.324Z,98605.84
2023-01-17T10:13:13.689Z,98604.44
2023-01-17T10:16:05.118Z,98601.66
2023-01-17T10:19:12.743Z,98605.84
2023-01-17T10:22:25.800Z,98598.50
2023-01-17T10:25:39.027Z,98608.84
2023-01-17T10:28:36.157Z,98604.53
2023-01-17T10:31:27.675Z,98590.06
2023-01-17T10:34:18.927Z,98602.66
2023-01-17T10:37:47.851Z,98609.09
2023-01-17T10:40:51.129Z,98614.34
2023-01-17T10:43:44.237Z,98611.50
2023-01-17T10:46:47.240Z,98620.63
2023-01-17T10:49:32.692Z,98597.03
2023-01-17T10:52:39.778Z,98616.66
2023-01-17T10:55:40.287Z,98622.78
2023-01-17T10:58:25.608Z,98620.44
2023-01-17T11:01:18.865Z,98622.13
2023-01-17T11:04:11.039Z,98619.78
2023-01-17T11:07:17.699Z,98616.41
2023-01-17T11:10:03.003Z,98620.28
2023-01-17T11:12:48.130Z,98603.53
2023-01-17T11:15:39.459Z,98617.94
2023-01-17T11:18:28.836Z,98624.94
2023-01-17T11:21:21.376Z,98626.78
2023-01-17T11:24:12.231Z,98598.97
2023-01-17T11:26:58.218Z,98605.19
2023-01-17T11:29:43.185Z,98620.00
2023-01-17T11:32:33.621Z,98624.88
2023-01-17T11:35:25.460Z,98612.38
2023-01-17T11:38:21.895Z,98618.34
2023-01-17T11:41:21.794Z,98614.88
2023-01-17T11:44:30.380Z,98616.44
2023-01-17T11:47:19.002Z,98612.31
2023-01-17T11:50:23.644Z,98611.31
2023-01-17T11:53:33.539Z,98609.66
2023-01-17T11:56:33.060Z,98606.78
2023-01-17T11:59:30.012Z,98610.94
2023-01-17T12:02:37.023Z,98613.16
2023-01-17T12:05:48.145Z,98614.84
2023-01-17T12:08:55.625Z,98610.50
2023-01-17T12:12:10.661Z,98611.13
2023-01-17T12:15:04.896Z,98574.06
2023-01-17T12:18:15.950Z,98603.88
2023-01-17T12:21:17.370Z,98606.09
2023-01-17T12:24:33.167Z,98591.16
2023-01-17T12:27:24.217Z,98594.28
2023-01-17T12:30:18.235Z,98595.13
2023-01-17T12:33:17.952Z,98586.25
2023-01-17T12:36:33.112Z,98587.94
2023-01-17T12:39:24.683Z,98555.00
2023-01-17T12:42:20.117Z,98584.88
2023-01-17T12:45:09.727Z,98580.09
2023-01-17T12:48:01.372Z,98576.09
2023-01-17T12:51:00.182Z,98580.22
2023-01-17T12:54:12.143Z,98570.34
2023-01-17T12:57:03.748Z,98566.13
2023-01-17T13:00:12.636Z,98567.41
2023-01-17T13:03:15.704Z,98569.44
2023-01-17T13:06:02.725Z,98575.00
2023-01-17T13:08:54.035Z,98575.69
2023-01-17T13:11:49.754Z,98552.28
2023-01-17T13:14:35.846Z,98569.91
2023-01-17T13:17:33.374Z,98566.72
2023-01-17T13:20:59.320Z,98568.50
2023-01-17T13:24:02.710Z,98573.38
2023-01-17T13:26:50.822Z,98567.72
2023-01-17T13:29:40.995Z,98571.13
2023-01-17T13:32:46.290Z,98579.16
2023-01-17T13:35:42.736Z,98573.09
2023-01-17T13:38:37.032Z,98579.16
2023-01-17T13:41:34.609Z,98577.44
2023-01-17T13:44:23.001Z,98547.81
2023-01-17T13:47:17.451Z,98587.91
2023-01-17T13:50:02.342Z,98566.31
2023-01-17T13:52:47.291Z,98576.97
2023-01-17T13:55:53.286Z,98588.38
2023-01-17T13:58:51.705Z,98591.50
2023-01-17T14:01:46.111Z,98580.66
2023-01-17T14:05:08.953Z,98595.75
2023-01-17T14:07:55.676Z,98602.16
2023-01-17T14:10:49.972Z,98604.38
2023-01-17T14:13:37.561Z,98603.16
2023-01-17T14:16:22.465Z,98611.16
2023-01-17T14:19:25.724Z,98614.69
2023-01-17T14:22:31.384Z,98619.94
2023-01-17T14:25:20.532Z,98616.00
2023-01-17T14:28:30.004Z,98625.38
2023-01-17T14:31:16.749Z,98603.84
2023-01-17T14:34:13.037Z,98626.31
2023-01-17T14:37:20.323Z,98627.53
2023-01-17T14:40:20.304Z,98636.91
2023-01-17T14:43:40.224Z,98639.66
2023-01-17T14:46:32.231Z,98617.22
2023-01-17T14:49:24.157Z,98623.09
2023-01-17T14:52:18.132Z,98637.31
2023-01-17T14:55:15.825Z,98633.38
2023-01-17T14:58:01.156Z,98641.63
2023-01-17T15:00:49.714Z,98620.72
2023-01-17T15:03:43.293Z,98635.81
2023-01-17T15:06:40.786Z,98646.19
2023-01-17T15:09:29.431Z,98656.22
2023-01-17T15:12:14.724Z,98662.69
2023-01-17T15:15:00.827Z,98659.69
2023-01-17T15:17:45.719Z,98660.50
2023-01-17T15:20:31.123Z,98663.16
2023-01-17T15:23:20.200Z,98643.31
2023-01-17T15:26:11.047Z,98667.59
2023-01-17T15:29:04.652Z,98657.75
2023-01-17T15:31:55.517Z,98673.97
2023-01-17T15:34:44.802Z,98670.84
2023-01-17T15:37:33.241Z,98672.28
2023-01-17T15:40:23.953Z,98685.38
2023-01-17T15:43:20.083Z,98674.63
2023-01-17T15:46:05.651Z,98682.41
2023-01-17T15:48:51.670Z,98682.53
2023-01-17T15:51:38.815Z,98684.56
2023-01-17T15:54:47.923Z,98697.81
2023-01-17T15:57:39.006Z,98698.25
2023-01-17T16:00:38.263Z,98693.19
2023-01-17T16:03:26.369Z,98706.28
2023-01-17T16:06:29.709Z,98712.81
2023-01-17T16:09:24.787Z,98714.28
2023-01-17T16:12:09.827Z,98710.34
2023-01-17T16:15:11.149Z,98719.25
2023-01-17T16:18:00.818Z,98713.81
2023-01-17T16:20:58.862Z,98719.44
2023-01-17T16:23:46.838Z,98711.72
2023-01-17T16:26:31.752Z,98710.34
2023-01-17T16:29:16.876Z,98723.56
2023-01-17T16:32:08.604Z,98708.50
2023-01-17T16:34:53.833Z,98723.19
2023-01-17T16:37:39.181Z,98719.16
2023-01-17T16:40:27.692Z,98721.00
2023-01-17T16:43:14.535Z,98717.88
2023-01-17T16:46:05.892Z,98725.25
2023-01-17T16:48:51.861Z,98723.94
2023-01-17T16:51:37.291Z,98722.09
2023-01-17T16:54:22.931Z,98726.78
2023-01-17T16:57:07.994Z,98729.97
2023-01-17T16:59:53.183Z,98715.78
2023-01-17T17:02:39.451Z,98744.72
2023-01-17T17:05:25.978Z,98746.19
2023-01-17T17:08:11.407Z,98757.25
2023-01-17T17:11:17.344Z,98751.72
2023-01-17T17:14:02.721Z,98769.38
2023-01-17T17:16:51.626Z,98774.41
2023-01-17T17:19:36.597Z,98772.28
2023-01-17T17:22:21.527Z,98782.56
2023-01-17T17:25:07.152Z,98780.28
2023-01-17T17:27:52.874Z,98781.78
2023-01-17T17:30:38.305Z,98783.47
2023-01-17T17:33:23.601Z,98782.34
2023-01-17T17:36:12.302Z,98792.06
2023-01-17T17:38:58.111Z,98796.19
2023-01-17T17:41:44.577Z,98794.56
2023-01-17T17:44:29.988Z,98804.28
2023-01-17T17:47:16.106Z,98807.63
2023-01-17T17:50:01.459Z,98812.03
2023-01-17T17:52:48.295Z,98817.84
2023-01-17T17:55:35.156Z,98802.34
2023-01-17T17:58:20.864Z,98828.97
2023-01-17T18:01:06.844Z,98831.13
2023-01-17T18:03:53.838Z,98829.50
2023-01-17T18:06:40.276Z,98818.97
2023-01-17T18:09:25.455Z,98838.28
2023-01-17T18:12:10.517Z,98835.22
2023-01-17T18:14:55.773Z,98846.91
2023-01-17T18:17:40.703Z,98845.44
2023-01-17T18:20:26.630Z,98854.81
2023-01-17T18:23:11.529Z,98850.59
2023-01-17T18:25:56.857Z,98835.78
2023-01-17T18:28:41.979Z,98859.19
2023-01-17T18:31:28.744Z,98872.66
2023-01-17T18:34:15.899Z,98876.75
2023-01-17T18:37:01.199Z,98887.28
2023-01-17T18:39:46.536Z,98885.84
2023-01-17T18:42:31.694Z,98866.84
2023-01-17T18:45:17.099Z,98881.88
2023-01-17T18:48:02.605Z,98876.38
2023-01-17T18:50:58.691Z,98896.63
2023-01-17T18:53:45.071Z,98876.69
2023-01-17T18:56:36.408Z,98906.19
2023-01-17T18:59:23.333Z,98904.59
2023-01-17T19:02:09.409Z,98920.03
2023-01-17T19:04:54.324Z,98916.59
2023-01-17T19:07:39.470Z,98911.34
2023-01-17T19:10:25.841Z,98919.59
2023-01-17T19:13:11.418Z,98920.47
2023-01-17T19:16:00.127Z,98924.75
2023-01-17T19:18:44.978Z,98922.28
2023-01-17T19:21:30.312Z,98922.13
2023-01-17T19:24:15.680Z,98924.75
2023-01-17T19:27:02.562Z,98936.72
2023-01-17T19:29:47.708Z,98927.50
2023-01-17T19:32:32.720Z,98936.06
2023-01-17T19:35:18.662Z,98929.41
2023-01-17T19:38:04.011Z,98929.34
2023-01-17T19:40:48.887Z,98929.34
2023-01-17T19:43:33.694Z,98934.56
2023-01-17T19:46:19.574Z,98934.63
2023-01-17T19:49:06.883Z,98929.81
2023-01-17T19:51:52.195Z,98915.09
2023-01-17T19:54:37.351Z,98946.16
2023-01-17T19:57:24.219Z,98938.44
2023-01-17T20:00:13.170Z,98949.56
2023-01-17T20:02:58.312Z,98946.00
2023-01-17T20:05:44.874Z,98954.38
2023-01-17T20:08:29.902Z,98946.31
2023-01-17T20:11:18.518Z,98922.69
2023-01-17T20:14:07.632Z,98956.91
2023-01-17T20:16:53.602Z,98936.44
2023-01-17T20:19:38.438Z,98939.81
2023-01-17T20:22:23.435Z,98962.53
2023-01-17T20:25:09.511Z,98968.56
2023-01-17T20:27:55.398Z,98946.22
2023-01-17T20:30:40.765Z,98957.97
2023-01-17T20:33:27.110Z,98971.44
2023-01-17T20:36:14.864Z,98969.19
2023-01-17T20:39:03.863Z,98977.66
2023-01-17T20:41:51.384Z,98971.44
2023-01-17T20:44:37.417Z,98956.78
2023-01-17T20:47:24.258Z,98984.69
2023-01-17T20:50:10.088Z,98975.53
2023-01-17T20:52:55.048Z,98981.22
2023-01-17T20:55:40.325Z,98991.66
2023-01-17T20:58:25.410Z,98999.06
2023-01-17T21:01:13.605Z,98998.34
2023-01-17T21:03:59.034Z,98998.50
2023-01-17T21:06:44.367Z,98978.56
2023-01-17T21:09:29.453Z,98997.78
2023-01-17T21:12:16.004Z,98960.19
2023-01-17T21:15:01.358Z,99007.28
2023-01-17T21:17:46.418Z,99004.72
2023-01-17T21:20:34.640Z,99007.50
2023-01-17T21:23:20.186Z,99010.91
2023-01-17T21:26:07.075Z,99013.63
2023-01-17T21:28:52.517Z,99019.00
2023-01-17T21:31:40.203Z,99013.78
2023-01-17T21:34:25.585Z,99013.16
2023-01-17T21:37:10.720Z,99021.34
2023-01-17T21:39:56.917Z,99031.97
2023-01-17T21:42:41.923Z,99010.25
2023-01-17T21:45:31.885Z,99028.84
2023-01-17T21:48:16.843Z,99036.69
2023-01-17T21:51:06.071Z,99036.69
2023-01-17T21:53:51.295Z,99019.38
2023-01-17T21:56:55.153Z,99039.56
2023-01-17T21:59:40.542Z,99035.47
2023-01-17T22:02:25.588Z,99036.38
2023-01-17T22:05:11.067Z,99030.13
2023-01-17T22:08:11.202Z,99049.84
2023-01-17T22:10:56.248Z,99044.41
2023-01-17T22:13:43.398Z,99044.13
2023-01-17T22:16:28.490Z,99042.75
2023-01-17T22:19:13.677Z,99043.25
2023-01-17T22:21:58.630Z,99047.13
2023-01-17T22:24:43.621Z,99053.31
2023-01-17T22:27:29.244Z,99051.78
2023-01-17T22:30:14.582Z,99052.81
2023-01-17T22:32:59.709Z,99033.97
2023-01-17T22:35:44.717Z,99062.47
2023-01-17T22:38:30.405Z,99066.13
2023-01-17T22:41:19.911Z,99063.84
2023-01-17T22:44:08.459Z,99066.38
2023-01-17T22:46:53.704Z,99049.22
2023-01-17T22:49:38.707Z,99055.16
2023-01-17T22:52:23.710Z,99064.28
2023-01-17T22:55:09.213Z,99058.28
2023-01-17T22:57:54.196Z,99027.75
2023-01-17T23:00:40.239Z,99060.16
2023-01-17T23:03:25.388Z,99065.94
2023-01-17T23:06:12.017Z,99070.28
2023-01-17T23:09:00.877Z,99069.50
2023-01-17T23:11:52.687Z,99089.16
2023-01-17T23:14:56.206Z,99092.69
2023-01-17T23:17:59.998Z,99086.00
2023-01-17T23:20:45.273Z,99086.00
2023-01-17T23:23:31.908Z,99080.31
2023-01-17T23:26:17.225Z,99084.53
2023-01-17T23:29:02.594Z,99086.34
2023-01-17T23:31:47.843Z,99088.22
2023-01-17T23:34:33.117Z,99088.06
2023-01-17T23:37:18.291Z,99082.25
2023-01-17T23:40:03.758Z,99080.25
2023-01-17T23:43:07.521Z,99079.38
2023-01-17T23:45:54.294Z,99075.44
2023-01-17T23:48:39.496Z,99079.19
2023-01-17T23:51:24.877Z,99061.81
2023-01-17T23:54:10.154Z,99050.13
2023-01-17T23:56:55.476Z,99072.13
2023-01-17T23:59:40.389Z,99083.84
